sensor_id;sensor_type;location;lat;lon;timestamp;temperature;humidity
15609;DHT22;64278;45.642;13.756;2023-05-02T00:01:39;22.60;60.60
15609;DHT22;64278;45.642;13.756;2023-05-02T00:04:06;22.60;60.50
15609;DHT22;64278;45.642;13.756;2023-05-02T00:06:31;22.60;60.50
15609;DHT22;64278;45.642;13.756;2023-05-02T00:08:57;22.60;60.50
15609;DHT22;64278;45.642;13.756;2023-05-02T00:11:23;22.60;60.50
15609;DHT22;64278;45.642;13.756;2023-05-02T00:13:49;22.60;60.50
15609;DHT22;64278;45.642;13.756;2023-05-02T00:16:14;22.60;60.50
15609;DHT22;64278;45.642;13.756;2023-05-02T00:18:40;22.60;60.50
15609;DHT22;64278;45.642;13.756;2023-05-02T00:21:06;22.60;60.50
15609;DHT22;64278;45.642;13.756;2023-05-02T00:23:33;22.60;60.50
15609;DHT22;64278;45.642;13.756;2023-05-02T00:25:58;22.60;60.50
15609;DHT22;64278;45.642;13.756;2023-05-02T00:28:24;22.60;60.60
15609;DHT22;64278;45.642;13.756;2023-05-02T00:30:51;22.60;60.50
15609;DHT22;64278;45.642;13.756;2023-05-02T00:33:17;22.60;60.50
15609;DHT22;64278;45.642;13.756;2023-05-02T00:35:43;22.60;60.50
15609;DHT22;64278;45.642;13.756;2023-05-02T00:38:09;22.60;60.50
15609;DHT22;64278;45.642;13.756;2023-05-02T00:40:48;22.60;60.50
15609;DHT22;64278;45.642;13.756;2023-05-02T00:43:15;22.60;60.50
15609;DHT22;64278;45.642;13.756;2023-05-02T00:45:43;22.60;60.50
15609;DHT22;64278;45.642;13.756;2023-05-02T00:48:09;22.60;60.50
15609;DHT22;64278;45.642;13.756;2023-05-02T00:50:39;22.60;60.50
15609;DHT22;64278;45.642;13.756;2023-05-02T00:53:09;22.60;60.40
15609;DHT22;64278;45.642;13.756;2023-05-02T00:55:36;22.50;60.40
15609;DHT22;64278;45.642;13.756;2023-05-02T00:58:05;22.60;60.40
15609;DHT22;64278;45.642;13.756;2023-05-02T01:03:16;22.50;60.40
15609;DHT22;64278;45.642;13.756;2023-05-02T01:05:50;22.60;60.40
15609;DHT22;64278;45.642;13.756;2023-05-02T01:13:38;22.60;60.50
15609;DHT22;64278;45.642;13.756;2023-05-02T01:16:05;22.60;60.50
15609;DHT22;64278;45.642;13.756;2023-05-02T01:18:36;22.60;60.50
15609;DHT22;64278;45.642;13.756;2023-05-02T01:21:06;22.50;60.40
15609;DHT22;64278;45.642;13.756;2023-05-02T01:23:40;22.50;60.40
15609;DHT22;64278;45.642;13.756;2023-05-02T01:29:06;22.60;60.50
15609;DHT22;64278;45.642;13.756;2023-05-02T01:31:38;22.60;60.50
15609;DHT22;64278;45.642;13.756;2023-05-02T01:34:09;22.60;60.50
15609;DHT22;64278;45.642;13.756;2023-05-02T01:36:36;22.60;60.50
15609;DHT22;64278;45.642;13.756;2023-05-02T01:39:03;22.60;60.50
15609;DHT22;64278;45.642;13.756;2023-05-02T01:41:33;22.50;60.50
15609;DHT22;64278;45.642;13.756;2023-05-02T01:44:01;22.50;60.50
15609;DHT22;64278;45.642;13.756;2023-05-02T01:46:33;22.50;60.50
15609;DHT22;64278;45.642;13.756;2023-05-02T01:49:02;22.50;60.50
15609;DHT22;64278;45.642;13.756;2023-05-02T01:51:33;22.50;60.50
15609;DHT22;64278;45.642;13.756;2023-05-02T01:54:03;22.50;60.50
15609;DHT22;64278;45.642;13.756;2023-05-02T01:56:36;22.50;60.50
15609;DHT22;64278;45.642;13.756;2023-05-02T01:59:07;22.50;60.50
15609;DHT22;64278;45.642;13.756;2023-05-02T02:01:35;22.50;60.50
15609;DHT22;64278;45.642;13.756;2023-05-02T02:04:01;22.50;60.50
15609;DHT22;64278;45.642;13.756;2023-05-02T02:06:28;22.50;60.50
15609;DHT22;64278;45.642;13.756;2023-05-02T02:08:54;22.50;60.50
15609;DHT22;64278;45.642;13.756;2023-05-02T02:11:33;22.50;60.50
15609;DHT22;64278;45.642;13.756;2023-05-02T02:14:06;22.50;60.50
15609;DHT22;64278;45.642;13.756;2023-05-02T02:16:34;22.50;60.40
15609;DHT22;64278;45.642;13.756;2023-05-02T02:19:05;22.50;60.40
15609;DHT22;64278;45.642;13.756;2023-05-02T02:21:35;22.50;60.40
15609;DHT22;64278;45.642;13.756;2023-05-02T02:24:04;22.50;60.50
15609;DHT22;64278;45.642;13.756;2023-05-02T02:26:31;22.50;60.50
15609;DHT22;64278;45.642;13.756;2023-05-02T02:28:56;22.50;60.40
15609;DHT22;64278;45.642;13.756;2023-05-02T02:31:22;22.50;60.40
15609;DHT22;64278;45.642;13.756;2023-05-02T02:33:50;22.50;60.40
15609;DHT22;64278;45.642;13.756;2023-05-02T02:37:15;22.50;60.40
15609;DHT22;64278;45.642;13.756;2023-05-02T02:42:09;22.50;60.40
15609;DHT22;64278;45.642;13.756;2023-05-02T02:44:42;22.50;60.40
15609;DHT22;64278;45.642;13.756;2023-05-02T02:53:13;22.50;60.50
15609;DHT22;64278;45.642;13.756;2023-05-02T02:55:45;22.50;60.50
15609;DHT22;64278;45.642;13.756;2023-05-02T02:58:27;22.50;60.50
15609;DHT22;64278;45.642;13.756;2023-05-02T03:00:55;22.50;60.50
15609;DHT22;64278;45.642;13.756;2023-05-02T03:03:23;22.50;60.50
15609;DHT22;64278;45.642;13.756;2023-05-02T03:05:54;22.50;60.50
15609;DHT22;64278;45.642;13.756;2023-05-02T03:08:21;22.50;60.50
15609;DHT22;64278;45.642;13.756;2023-05-02T03:10:46;22.50;60.50
15609;DHT22;64278;45.642;13.756;2023-05-02T03:13:12;22.50;60.50
15609;DHT22;64278;45.642;13.756;2023-05-02T03:18:16;22.50;60.50
15609;DHT22;64278;45.642;13.756;2023-05-02T03:20:42;22.50;60.50
15609;DHT22;64278;45.642;13.756;2023-05-02T03:23:07;22.50;60.50
15609;DHT22;64278;45.642;13.756;2023-05-02T03:25:33;22.50;60.60
15609;DHT22;64278;45.642;13.756;2023-05-02T03:27:59;22.40;60.50
15609;DHT22;64278;45.642;13.756;2023-05-02T03:30:25;22.40;60.50
15609;DHT22;64278;45.642;13.756;2023-05-02T03:32:51;22.50;60.50
15609;DHT22;64278;45.642;13.756;2023-05-02T03:35:16;22.50;60.50
15609;DHT22;64278;45.642;13.756;2023-05-02T03:37:43;22.50;60.50
15609;DHT22;64278;45.642;13.756;2023-05-02T03:40:09;22.40;60.50
15609;DHT22;64278;45.642;13.756;2023-05-02T03:42:34;22.50;60.50
15609;DHT22;64278;45.642;13.756;2023-05-02T03:45:07;22.40;60.50
15609;DHT22;64278;45.642;13.756;2023-05-02T03:47:33;22.50;60.50
15609;DHT22;64278;45.642;13.756;2023-05-02T03:49:59;22.40;60.40
15609;DHT22;64278;45.642;13.756;2023-05-02T03:52:26;22.50;60.50
15609;DHT22;64278;45.642;13.756;2023-05-02T03:54:52;22.40;61.20
15609;DHT22;64278;45.642;13.756;2023-05-02T03:57:18;22.40;60.50
15609;DHT22;64278;45.642;13.756;2023-05-02T03:59:43;22.50;60.60
15609;DHT22;64278;45.642;13.756;2023-05-02T04:02:12;22.50;60.60
15609;DHT22;64278;45.642;13.756;2023-05-02T04:04:38;22.50;60.60
15609;DHT22;64278;45.642;13.756;2023-05-02T04:07:05;22.50;60.60
15609;DHT22;64278;45.642;13.756;2023-05-02T04:09:32;22.50;60.50
15609;DHT22;64278;45.642;13.756;2023-05-02T04:11:58;22.50;60.50
15609;DHT22;64278;45.642;13.756;2023-05-02T04:14:24;22.50;60.60
15609;DHT22;64278;45.642;13.756;2023-05-02T04:16:50;22.50;60.60
15609;DHT22;64278;45.642;13.756;2023-05-02T04:19:17;22.50;60.50
15609;DHT22;64278;45.642;13.756;2023-05-02T04:21:43;22.40;60.50
15609;DHT22;64278;45.642;13.756;2023-05-02T04:24:09;22.40;60.50
15609;DHT22;64278;45.642;13.756;2023-05-02T04:26:35;22.40;60.50
15609;DHT22;64278;45.642;13.756;2023-05-02T04:29:01;22.40;60.50
15609;DHT22;64278;45.642;13.756;2023-05-02T04:31:27;22.40;60.50
15609;DHT22;64278;45.642;13.756;2023-05-02T04:33:53;22.50;60.50
15609;DHT22;64278;45.642;13.756;2023-05-02T04:36:19;22.40;60.50
15609;DHT22;64278;45.642;13.756;2023-05-02T04:38:44;22.40;60.40
15609;DHT22;64278;45.642;13.756;2023-05-02T04:41:11;22.40;60.40
15609;DHT22;64278;45.642;13.756;2023-05-02T04:43:37;22.40;60.40
15609;DHT22;64278;45.642;13.756;2023-05-02T04:46:03;22.40;60.50
15609;DHT22;64278;45.642;13.756;2023-05-02T04:48:29;22.40;60.40
15609;DHT22;64278;45.642;13.756;2023-05-02T04:50:54;22.40;60.50
15609;DHT22;64278;45.642;13.756;2023-05-02T04:53:21;22.40;60.50
15609;DHT22;64278;45.642;13.756;2023-05-02T04:55:46;22.40;60.40
15609;DHT22;64278;45.642;13.756;2023-05-02T04:58:12;22.40;60.40
15609;DHT22;64278;45.642;13.756;2023-05-02T05:00:38;22.40;60.40
15609;DHT22;64278;45.642;13.756;2023-05-02T05:03:03;22.40;60.50
15609;DHT22;64278;45.642;13.756;2023-05-02T05:05:31;22.40;60.40
15609;DHT22;64278;45.642;13.756;2023-05-02T05:07:57;22.40;60.40
15609;DHT22;64278;45.642;13.756;2023-05-02T05:10:22;22.40;60.40
15609;DHT22;64278;45.642;13.756;2023-05-02T05:12:48;22.40;60.40
15609;DHT22;64278;45.642;13.756;2023-05-02T05:15:14;22.40;60.50
15609;DHT22;64278;45.642;13.756;2023-05-02T05:17:40;22.40;60.50
15609;DHT22;64278;45.642;13.756;2023-05-02T05:20:07;22.40;60.50
15609;DHT22;64278;45.642;13.756;2023-05-02T05:22:41;22.40;60.50
15609;DHT22;64278;45.642;13.756;2023-05-02T05:25:10;22.40;61.30
15609;DHT22;64278;45.642;13.756;2023-05-02T05:27:35;22.40;60.50
15609;DHT22;64278;45.642;13.756;2023-05-02T05:30:02;22.40;60.50
15609;DHT22;64278;45.642;13.756;2023-05-02T05:32:28;22.40;60.50
15609;DHT22;64278;45.642;13.756;2023-05-02T05:34:54;22.40;60.50
15609;DHT22;64278;45.642;13.756;2023-05-02T05:37:20;22.50;60.50
15609;DHT22;64278;45.642;13.756;2023-05-02T05:39:46;22.40;60.50
15609;DHT22;64278;45.642;13.756;2023-05-02T05:42:12;22.40;60.40
15609;DHT22;64278;45.642;13.756;2023-05-02T05:44:38;22.40;60.40
15609;DHT22;64278;45.642;13.756;2023-05-02T05:47:04;22.40;60.50
15609;DHT22;64278;45.642;13.756;2023-05-02T05:49:30;22.40;60.50
15609;DHT22;64278;45.642;13.756;2023-05-02T05:51:56;22.40;60.40
15609;DHT22;64278;45.642;13.756;2023-05-02T05:54:22;22.40;60.40
15609;DHT22;64278;45.642;13.756;2023-05-02T05:56:47;22.40;60.40
15609;DHT22;64278;45.642;13.756;2023-05-02T05:59:13;22.40;60.40
15609;DHT22;64278;45.642;13.756;2023-05-02T06:01:39;22.40;61.20
15609;DHT22;64278;45.642;13.756;2023-05-02T06:04:05;22.40;60.40
15609;DHT22;64278;45.642;13.756;2023-05-02T06:06:32;22.40;60.40
15609;DHT22;64278;45.642;13.756;2023-05-02T06:08:58;22.40;60.40
15609;DHT22;64278;45.642;13.756;2023-05-02T06:11:24;22.40;60.50
15609;DHT22;64278;45.642;13.756;2023-05-02T06:13:51;22.40;60.50
15609;DHT22;64278;45.642;13.756;2023-05-02T06:16:17;22.40;60.50
15609;DHT22;64278;45.642;13.756;2023-05-02T06:18:43;22.40;60.50
15609;DHT22;64278;45.642;13.756;2023-05-02T06:21:09;22.40;60.50
15609;DHT22;64278;45.642;13.756;2023-05-02T06:23:35;22.40;60.50
15609;DHT22;64278;45.642;13.756;2023-05-02T06:26:02;22.40;60.50
15609;DHT22;64278;45.642;13.756;2023-05-02T06:28:28;22.40;60.40
15609;DHT22;64278;45.642;13.756;2023-05-02T06:31:02;22.40;60.40
15609;DHT22;64278;45.642;13.756;2023-05-02T06:33:32;22.40;60.40
15609;DHT22;64278;45.642;13.756;2023-05-02T06:35:58;22.40;60.50
15609;DHT22;64278;45.642;13.756;2023-05-02T06:38:24;22.40;60.40
15609;DHT22;64278;45.642;13.756;2023-05-02T06:40:50;22.40;60.40
15609;DHT22;64278;45.642;13.756;2023-05-02T06:43:17;22.40;60.40
15609;DHT22;64278;45.642;13.756;2023-05-02T06:45:43;22.40;60.40
15609;DHT22;64278;45.642;13.756;2023-05-02T06:48:09;22.40;60.40
15609;DHT22;64278;45.642;13.756;2023-05-02T06:50:35;22.40;60.40
15609;DHT22;64278;45.642;13.756;2023-05-02T06:53:01;22.40;60.50
15609;DHT22;64278;45.642;13.756;2023-05-02T06:55:27;22.30;60.40
15609;DHT22;64278;45.642;13.756;2023-05-02T06:57:53;22.40;60.50
15609;DHT22;64278;45.642;13.756;2023-05-02T07:00:20;22.40;60.40
15609;DHT22;64278;45.642;13.756;2023-05-02T07:02:47;22.40;60.50
15609;DHT22;64278;45.642;13.756;2023-05-02T07:05:13;22.30;60.40
15609;DHT22;64278;45.642;13.756;2023-05-02T07:07:43;22.30;60.50
15609;DHT22;64278;45.642;13.756;2023-05-02T07:10:09;22.30;60.50
15609;DHT22;64278;45.642;13.756;2023-05-02T07:12:36;22.40;60.50
15609;DHT22;64278;45.642;13.756;2023-05-02T07:15:03;22.30;60.40
15609;DHT22;64278;45.642;13.756;2023-05-02T07:17:29;22.30;60.40
15609;DHT22;64278;45.642;13.756;2023-05-02T07:19:55;22.30;60.40
15609;DHT22;64278;45.642;13.756;2023-05-02T07:22:21;22.30;60.40
15609;DHT22;64278;45.642;13.756;2023-05-02T07:24:47;22.30;60.40
15609;DHT22;64278;45.642;13.756;2023-05-02T07:27:12;22.30;60.40
15609;DHT22;64278;45.642;13.756;2023-05-02T07:29:39;22.30;60.40
15609;DHT22;64278;45.642;13.756;2023-05-02T07:32:05;22.30;60.40
15609;DHT22;64278;45.642;13.756;2023-05-02T07:34:31;22.30;60.40
15609;DHT22;64278;45.642;13.756;2023-05-02T07:36:57;22.30;60.40
15609;DHT22;64278;45.642;13.756;2023-05-02T07:39:23;22.30;60.40
15609;DHT22;64278;45.642;13.756;2023-05-02T07:41:52;22.40;60.50
15609;DHT22;64278;45.642;13.756;2023-05-02T07:44:19;22.30;60.40
15609;DHT22;64278;45.642;13.756;2023-05-02T07:46:45;22.30;60.40
15609;DHT22;64278;45.642;13.756;2023-05-02T07:49:12;22.30;60.50
15609;DHT22;64278;45.642;13.756;2023-05-02T07:51:37;22.30;60.40
15609;DHT22;64278;45.642;13.756;2023-05-02T07:54:17;22.30;60.50
15609;DHT22;64278;45.642;13.756;2023-05-02T07:56:43;22.30;60.50
15609;DHT22;64278;45.642;13.756;2023-05-02T07:59:08;22.30;60.50
15609;DHT22;64278;45.642;13.756;2023-05-02T08:01:34;22.30;60.40
15609;DHT22;64278;45.642;13.756;2023-05-02T08:04:00;22.30;60.40
15609;DHT22;64278;45.642;13.756;2023-05-02T08:06:27;22.30;60.40
15609;DHT22;64278;45.642;13.756;2023-05-02T08:08:53;22.30;60.50
15609;DHT22;64278;45.642;13.756;2023-05-02T08:11:19;22.30;60.50
15609;DHT22;64278;45.642;13.756;2023-05-02T08:13:47;22.30;60.50
15609;DHT22;64278;45.642;13.756;2023-05-02T08:16:13;22.30;60.50
15609;DHT22;64278;45.642;13.756;2023-05-02T08:18:38;22.30;60.50
15609;DHT22;64278;45.642;13.756;2023-05-02T08:21:05;22.30;60.50
15609;DHT22;64278;45.642;13.756;2023-05-02T08:23:31;22.30;60.50
15609;DHT22;64278;45.642;13.756;2023-05-02T08:25:56;22.30;61.30
15609;DHT22;64278;45.642;13.756;2023-05-02T08:28:22;22.20;60.40
15609;DHT22;64278;45.642;13.756;2023-05-02T08:30:48;22.30;60.50
15609;DHT22;64278;45.642;13.756;2023-05-02T08:33:13;22.30;60.50
15609;DHT22;64278;45.642;13.756;2023-05-02T08:35:39;22.30;60.50
15609;DHT22;64278;45.642;13.756;2023-05-02T08:38:05;22.30;60.50
15609;DHT22;64278;45.642;13.756;2023-05-02T08:40:35;22.30;60.40
15609;DHT22;64278;45.642;13.756;2023-05-02T08:43:02;22.30;60.30
15609;DHT22;64278;45.642;13.756;2023-05-02T08:45:51;22.40;60.10
15609;DHT22;64278;45.642;13.756;2023-05-02T08:48:17;22.50;60.00
15609;DHT22;64278;45.642;13.756;2023-05-02T08:50:44;22.60;60.10
15609;DHT22;64278;45.642;13.756;2023-05-02T08:53:13;22.70;60.00
15609;DHT22;64278;45.642;13.756;2023-05-02T08:55:40;22.80;59.80
15609;DHT22;64278;45.642;13.756;2023-05-02T08:58:07;22.90;59.80
15609;DHT22;64278;45.642;13.756;2023-05-02T09:00:38;22.90;59.60
15609;DHT22;64278;45.642;13.756;2023-05-02T09:05:44;23.00;59.40
15609;DHT22;64278;45.642;13.756;2023-05-02T09:08:11;23.00;59.30
15609;DHT22;64278;45.642;13.756;2023-05-02T09:10:38;23.10;59.30
15609;DHT22;64278;45.642;13.756;2023-05-02T09:18:33;23.20;58.70
15609;DHT22;64278;45.642;13.756;2023-05-02T09:20:59;23.10;56.50
15609;DHT22;64278;45.642;13.756;2023-05-02T09:23:33;23.00;56.40
15609;DHT22;64278;45.642;13.756;2023-05-02T09:25:59;22.90;56.30
15609;DHT22;64278;45.642;13.756;2023-05-02T09:28:45;22.80;56.60
15609;DHT22;64278;45.642;13.756;2023-05-02T09:31:13;22.80;57.00
15609;DHT22;64278;45.642;13.756;2023-05-02T09:33:39;22.70;56.90
15609;DHT22;64278;45.642;13.756;2023-05-02T09:36:08;22.70;57.10
15609;DHT22;64278;45.642;13.756;2023-05-02T09:38:34;22.70;57.00
15609;DHT22;64278;45.642;13.756;2023-05-02T09:41:00;22.70;57.00
15609;DHT22;64278;45.642;13.756;2023-05-02T09:43:28;22.70;57.10
15609;DHT22;64278;45.642;13.756;2023-05-02T09:48:30;22.80;56.90
15609;DHT22;64278;45.642;13.756;2023-05-02T09:50:57;22.80;57.30
15609;DHT22;64278;45.642;13.756;2023-05-02T09:53:26;22.90;57.70
15609;DHT22;64278;45.642;13.756;2023-05-02T09:56:00;22.90;57.80
15609;DHT22;64278;45.642;13.756;2023-05-02T09:58:25;23.00;57.90
15609;DHT22;64278;45.642;13.756;2023-05-02T10:00:51;23.00;58.00
15609;DHT22;64278;45.642;13.756;2023-05-02T10:03:17;23.00;58.00
15609;DHT22;64278;45.642;13.756;2023-05-02T10:05:45;23.10;58.00
15609;DHT22;64278;45.642;13.756;2023-05-02T10:08:12;23.10;58.10
15609;DHT22;64278;45.642;13.756;2023-05-02T10:10:39;23.10;58.20
15609;DHT22;64278;45.642;13.756;2023-05-02T10:13:07;23.20;58.30
15609;DHT22;64278;45.642;13.756;2023-05-02T10:15:36;23.20;58.30
15609;DHT22;64278;45.642;13.756;2023-05-02T10:18:11;23.20;58.30
15609;DHT22;64278;45.642;13.756;2023-05-02T10:20:43;23.20;58.30
15609;DHT22;64278;45.642;13.756;2023-05-02T10:23:12;23.20;58.40
15609;DHT22;64278;45.642;13.756;2023-05-02T10:25:38;23.20;58.50
15609;DHT22;64278;45.642;13.756;2023-05-02T10:28:04;23.20;58.60
15609;DHT22;64278;45.642;13.756;2023-05-02T10:30:30;23.20;58.70
15609;DHT22;64278;45.642;13.756;2023-05-02T10:32:59;23.20;58.80
15609;DHT22;64278;45.642;13.756;2023-05-02T10:35:25;23.20;58.90
15609;DHT22;64278;45.642;13.756;2023-05-02T10:37:51;23.20;59.00
15609;DHT22;64278;45.642;13.756;2023-05-02T10:40:18;23.20;59.20
15609;DHT22;64278;45.642;13.756;2023-05-02T10:42:46;23.20;59.30
15609;DHT22;64278;45.642;13.756;2023-05-02T10:45:35;23.20;59.30
15609;DHT22;64278;45.642;13.756;2023-05-02T10:48:18;23.20;59.50
15609;DHT22;64278;45.642;13.756;2023-05-02T10:50:45;23.20;59.70
15609;DHT22;64278;45.642;13.756;2023-05-02T10:56:13;23.20;60.20
15609;DHT22;64278;45.642;13.756;2023-05-02T10:58:40;23.20;60.50
15609;DHT22;64278;45.642;13.756;2023-05-02T11:06:20;23.20;60.90
15609;DHT22;64278;45.642;13.756;2023-05-02T11:08:46;23.20;60.90
15609;DHT22;64278;45.642;13.756;2023-05-02T11:11:47;23.20;60.90
15609;DHT22;64278;45.642;13.756;2023-05-02T11:19:23;23.20;61.00
15609;DHT22;64278;45.642;13.756;2023-05-02T11:21:49;23.20;61.10
15609;DHT22;64278;45.642;13.756;2023-05-02T11:32:20;23.20;61.70
15609;DHT22;64278;45.642;13.756;2023-05-02T11:34:47;23.20;62.10
15609;DHT22;64278;45.642;13.756;2023-05-02T11:37:18;23.10;62.20
15609;DHT22;64278;45.642;13.756;2023-05-02T11:39:43;23.10;62.30
15609;DHT22;64278;45.642;13.756;2023-05-02T11:42:27;23.10;62.50
15609;DHT22;64278;45.642;13.756;2023-05-02T11:44:57;23.10;62.70
15609;DHT22;64278;45.642;13.756;2023-05-02T11:47:23;23.10;62.80
15609;DHT22;64278;45.642;13.756;2023-05-02T11:49:50;23.10;62.90
15609;DHT22;64278;45.642;13.756;2023-05-02T11:52:16;23.10;62.90
15609;DHT22;64278;45.642;13.756;2023-05-02T11:54:42;23.10;62.90
15609;DHT22;64278;45.642;13.756;2023-05-02T11:57:07;23.10;62.90
15609;DHT22;64278;45.642;13.756;2023-05-02T11:59:50;23.10;63.00
15609;DHT22;64278;45.642;13.756;2023-05-02T12:02:16;23.10;63.10
15609;DHT22;64278;45.642;13.756;2023-05-02T12:04:42;23.10;63.10
15609;DHT22;64278;45.642;13.756;2023-05-02T12:07:11;23.10;63.20
15609;DHT22;64278;45.642;13.756;2023-05-02T12:09:49;23.10;63.30
15609;DHT22;64278;45.642;13.756;2023-05-02T12:12:22;23.10;63.80
15609;DHT22;64278;45.642;13.756;2023-05-02T12:14:48;23.10;63.90
15609;DHT22;64278;45.642;13.756;2023-05-02T12:17:13;23.10;63.90
15609;DHT22;64278;45.642;13.756;2023-05-02T12:19:39;23.10;64.00
15609;DHT22;64278;45.642;13.756;2023-05-02T12:22:05;23.10;64.20
15609;DHT22;64278;45.642;13.756;2023-05-02T12:24:32;23.00;64.10
15609;DHT22;64278;45.642;13.756;2023-05-02T12:27:11;23.00;64.20
15609;DHT22;64278;45.642;13.756;2023-05-02T12:29:41;23.00;64.40
15609;DHT22;64278;45.642;13.756;2023-05-02T12:32:08;23.00;64.30
15609;DHT22;64278;45.642;13.756;2023-05-02T12:34:34;23.00;64.40
15609;DHT22;64278;45.642;13.756;2023-05-02T12:37:01;22.90;64.60
15609;DHT22;64278;45.642;13.756;2023-05-02T12:39:41;23.00;64.40
15609;DHT22;64278;45.642;13.756;2023-05-02T12:42:18;23.00;64.30
15609;DHT22;64278;45.642;13.756;2023-05-02T12:44:45;23.00;64.50
15609;DHT22;64278;45.642;13.756;2023-05-02T12:47:13;23.00;64.50
15609;DHT22;64278;45.642;13.756;2023-05-02T12:55:20;23.00;64.50
15609;DHT22;64278;45.642;13.756;2023-05-02T12:57:49;22.90;64.40
15609;DHT22;64278;45.642;13.756;2023-05-02T13:00:17;22.90;64.40
15609;DHT22;64278;45.642;13.756;2023-05-02T13:02:43;22.90;64.40
15609;DHT22;64278;45.642;13.756;2023-05-02T13:05:16;22.90;64.30
15609;DHT22;64278;45.642;13.756;2023-05-02T13:07:42;22.90;64.40
15609;DHT22;64278;45.642;13.756;2023-05-02T13:10:08;22.80;64.40
15609;DHT22;64278;45.642;13.756;2023-05-02T13:12:34;22.90;64.10
15609;DHT22;64278;45.642;13.756;2023-05-02T13:15:05;22.90;63.80
15609;DHT22;64278;45.642;13.756;2023-05-02T13:17:32;22.90;63.70
15609;DHT22;64278;45.642;13.756;2023-05-02T13:19:58;22.80;63.60
15609;DHT22;64278;45.642;13.756;2023-05-02T13:22:24;22.80;63.60
15609;DHT22;64278;45.642;13.756;2023-05-02T13:24:50;22.80;63.70
15609;DHT22;64278;45.642;13.756;2023-05-02T13:27:16;22.80;63.60
15609;DHT22;64278;45.642;13.756;2023-05-02T13:29:45;22.90;63.60
15609;DHT22;64278;45.642;13.756;2023-05-02T13:32:13;22.80;63.50
15609;DHT22;64278;45.642;13.756;2023-05-02T13:34:38;22.80;63.40
15609;DHT22;64278;45.642;13.756;2023-05-02T13:37:04;22.80;63.20
15609;DHT22;64278;45.642;13.756;2023-05-02T13:39:30;22.80;63.20
15609;DHT22;64278;45.642;13.756;2023-05-02T13:41:55;22.80;63.10
15609;DHT22;64278;45.642;13.756;2023-05-02T13:44:21;22.80;63.10
15609;DHT22;64278;45.642;13.756;2023-05-02T13:46:47;22.80;63.10
15609;DHT22;64278;45.642;13.756;2023-05-02T13:49:13;22.80;63.00
15609;DHT22;64278;45.642;13.756;2023-05-02T13:51:38;22.80;63.00
15609;DHT22;64278;45.642;13.756;2023-05-02T13:54:04;22.80;63.70
15609;DHT22;64278;45.642;13.756;2023-05-02T13:56:30;22.80;62.90
15609;DHT22;64278;45.642;13.756;2023-05-02T13:58:56;22.70;62.80
15609;DHT22;64278;45.642;13.756;2023-05-02T14:01:22;22.70;62.80
15609;DHT22;64278;45.642;13.756;2023-05-02T14:03:47;22.70;62.70
15609;DHT22;64278;45.642;13.756;2023-05-02T14:06:13;22.70;62.70
15609;DHT22;64278;45.642;13.756;2023-05-02T14:08:39;22.70;62.70
15609;DHT22;64278;45.642;13.756;2023-05-02T14:11:04;22.70;62.60
15609;DHT22;64278;45.642;13.756;2023-05-02T14:13:30;22.70;62.60
15609;DHT22;64278;45.642;13.756;2023-05-02T14:15:56;22.70;62.50
15609;DHT22;64278;45.642;13.756;2023-05-02T14:18:23;22.70;62.50
15609;DHT22;64278;45.642;13.756;2023-05-02T14:20:48;22.70;62.60
15609;DHT22;64278;45.642;13.756;2023-05-02T14:23:14;22.70;62.80
15609;DHT22;64278;45.642;13.756;2023-05-02T14:25:40;22.70;62.70
15609;DHT22;64278;45.642;13.756;2023-05-02T14:28:06;22.70;62.70
15609;DHT22;64278;45.642;13.756;2023-05-02T14:30:31;22.70;62.90
15609;DHT22;64278;45.642;13.756;2023-05-02T14:32:57;22.70;63.00
15609;DHT22;64278;45.642;13.756;2023-05-02T14:35:23;22.60;62.80
15609;DHT22;64278;45.642;13.756;2023-05-02T14:37:49;22.60;62.70
15609;DHT22;64278;45.642;13.756;2023-05-02T14:40:14;22.60;62.50
15609;DHT22;64278;45.642;13.756;2023-05-02T14:42:41;22.60;62.40
15609;DHT22;64278;45.642;13.756;2023-05-02T14:45:08;22.60;62.40
15609;DHT22;64278;45.642;13.756;2023-05-02T14:47:34;22.60;62.30
15609;DHT22;64278;45.642;13.756;2023-05-02T14:50:01;22.60;62.30
15609;DHT22;64278;45.642;13.756;2023-05-02T14:52:27;22.60;62.30
15609;DHT22;64278;45.642;13.756;2023-05-02T14:54:53;22.60;62.20
15609;DHT22;64278;45.642;13.756;2023-05-02T14:57:18;22.60;62.20
15609;DHT22;64278;45.642;13.756;2023-05-02T14:59:44;22.60;62.20
15609;DHT22;64278;45.642;13.756;2023-05-02T15:02:09;22.60;62.40
15609;DHT22;64278;45.642;13.756;2023-05-02T15:04:35;22.60;62.40
15609;DHT22;64278;45.642;13.756;2023-05-02T15:07:02;22.60;62.60
15609;DHT22;64278;45.642;13.756;2023-05-02T15:09:28;22.60;59.60
15609;DHT22;64278;45.642;13.756;2023-05-02T15:11:55;22.50;57.80
15609;DHT22;64278;45.642;13.756;2023-05-02T15:14:21;22.40;58.60
15609;DHT22;64278;45.642;13.756;2023-05-02T15:16:47;22.40;59.30
15609;DHT22;64278;45.642;13.756;2023-05-02T15:19:12;22.30;59.60
15609;DHT22;64278;45.642;13.756;2023-05-02T15:21:38;22.30;60.00
15609;DHT22;64278;45.642;13.756;2023-05-02T15:24:04;22.30;59.80
15609;DHT22;64278;45.642;13.756;2023-05-02T15:26:31;22.30;59.60
15609;DHT22;64278;45.642;13.756;2023-05-02T15:28:57;22.30;59.50
15609;DHT22;64278;45.642;13.756;2023-05-02T15:31:23;22.30;59.50
15609;DHT22;64278;45.642;13.756;2023-05-02T15:33:49;22.30;59.00
15609;DHT22;64278;45.642;13.756;2023-05-02T15:36:15;22.20;58.90
15609;DHT22;64278;45.642;13.756;2023-05-02T15:38:41;22.10;58.90
15609;DHT22;64278;45.642;13.756;2023-05-02T15:41:09;22.10;59.00
15609;DHT22;64278;45.642;13.756;2023-05-02T15:43:35;22.10;59.00
15609;DHT22;64278;45.642;13.756;2023-05-02T15:46:01;22.10;59.40
15609;DHT22;64278;45.642;13.756;2023-05-02T15:48:28;22.20;59.90
15609;DHT22;64278;45.642;13.756;2023-05-02T15:50:53;22.20;60.30
15609;DHT22;64278;45.642;13.756;2023-05-02T15:53:20;22.30;60.40
15609;DHT22;64278;45.642;13.756;2023-05-02T15:55:50;22.40;60.50
15609;DHT22;64278;45.642;13.756;2023-05-02T15:58:16;22.50;60.40
15609;DHT22;64278;45.642;13.756;2023-05-02T16:00:43;22.70;60.30
15609;DHT22;64278;45.642;13.756;2023-05-02T16:03:09;22.70;60.20
15609;DHT22;64278;45.642;13.756;2023-05-02T16:05:37;22.80;60.20
15609;DHT22;64278;45.642;13.756;2023-05-02T16:08:03;22.90;60.10
15609;DHT22;64278;45.642;13.756;2023-05-02T16:10:29;23.00;60.10
15609;DHT22;64278;45.642;13.756;2023-05-02T16:12:55;23.00;60.00
15609;DHT22;64278;45.642;13.756;2023-05-02T16:15:20;23.10;60.10
15609;DHT22;64278;45.642;13.756;2023-05-02T16:17:46;23.10;60.00